createdAt,value
2023-10-09T00:00:35.257Z,14.02
2023-10-09T00:21:14.149Z,13.95
2023-10-09T00:29:35.910Z,13.91
2023-10-09T00:41:10.625Z,13.91
2023-10-09T00:46:47.203Z,13.91
2023-10-09T00:49:17.261Z,13.87
2023-10-09T00:51:57.523Z,13.86
2023-10-09T00:54:28.906Z,13.87
2023-10-09T00:57:07.981Z,13.84
2023-10-09T00:59:35.546Z,13.82
2023-10-09T01:02:08.153Z,13.82
2023-10-09T01:04:42.607Z,13.79
2023-10-09T01:07:26.762Z,13.71
2023-10-09T01:27:50.532Z,13.50
2023-10-09T01:39:28.017Z,13.13
2023-10-09T01:44:55.468Z,13.07
2023-10-09T01:47:54.284Z,13.11
2023-10-09T01:53:09.206Z,13.17
2023-10-09T01:58:24.603Z,13.18
2023-10-09T02:00:56.365Z,13.21
2023-10-09T02:03:27.180Z,13.22
2023-10-09T02:06:04.588Z,13.20
2023-10-09T02:08:31.643Z,13.16
2023-10-09T02:10:58.308Z,13.10
2023-10-09T02:13:31.225Z,13.05
2023-10-09T02:16:14.571Z,13.02
2023-10-09T02:18:54.192Z,12.98
2023-10-09T02:30:30.961Z,12.90
2023-10-09T02:45:11.930Z,12.85
2023-10-09T02:47:40.956Z,12.85
2023-10-09T02:56:13.983Z,12.76
2023-10-09T03:04:42.912Z,12.72
2023-10-09T03:07:14.830Z,12.78
2023-10-09T03:09:42.046Z,12.82
2023-10-09T03:15:00.163Z,12.84
2023-10-09T03:17:27.426Z,12.87
2023-10-09T03:19:55.851Z,12.93
2023-10-09T03:22:22.888Z,12.93
2023-10-09T03:24:51.553Z,12.98
2023-10-09T03:27:20.356Z,13.05
2023-10-09T03:29:51.154Z,13.08
2023-10-09T03:32:18.765Z,13.13
2023-10-09T03:34:45.331Z,13.13
2023-10-09T03:37:23.749Z,13.06
2023-10-09T03:39:52.744Z,12.99
2023-10-09T03:42:24.213Z,12.89
2023-10-09T03:44:54.937Z,12.83
2023-10-09T03:47:26.066Z,12.77
2023-10-09T03:49:55.326Z,12.71
2023-10-09T03:52:27.226Z,12.65
2023-10-09T03:54:54.579Z,12.63
2023-10-09T03:57:21.847Z,12.61
2023-10-09T03:59:48.662Z,12.58
2023-10-09T04:02:16.137Z,12.56
2023-10-09T04:04:48.418Z,12.56
2023-10-09T04:07:18.022Z,12.55
2023-10-09T04:09:49.356Z,12.54
2023-10-09T04:12:26.124Z,12.52
2023-10-09T04:14:56.632Z,12.44
2023-10-09T04:17:30.840Z,12.38
2023-10-09T04:20:16.681Z,12.32
2023-10-09T04:22:52.959Z,12.25
2023-10-09T04:25:42.008Z,12.23
2023-10-09T04:28:15.561Z,12.20
2023-10-09T04:30:44.714Z,12.19
2023-10-09T04:33:29.828Z,12.18
2023-10-09T04:36:15.530Z,12.10
2023-10-09T04:38:57.216Z,12.05
2023-10-09T04:44:52.815Z,12.07
2023-10-09T04:47:37.029Z,12.10
2023-10-09T04:50:12.966Z,12.13
2023-10-09T04:52:39.829Z,12.14
2023-10-09T04:55:10.751Z,12.16
2023-10-09T04:57:47.201Z,12.13
2023-10-09T05:00:27.414Z,12.07
2023-10-09T05:06:22.152Z,12.04
2023-10-09T05:14:46.760Z,11.86
2023-10-09T05:17:17.216Z,11.90
2023-10-09T05:19:56.138Z,11.92
2023-10-09T05:25:41.437Z,11.90
2023-10-09T05:28:26.675Z,11.88
2023-10-09T05:31:09.502Z,11.84
2023-10-09T05:33:38.344Z,11.81
2023-10-09T05:36:15.874Z,11.77
2023-10-09T05:38:47.474Z,11.70
2023-10-09T05:41:48.838Z,11.67
2023-10-09T05:44:34.449Z,11.73
2023-10-09T05:47:21.511Z,11.76
2023-10-09T05:49:48.452Z,11.77
2023-10-09T05:52:34.013Z,11.80
2023-10-09T05:55:19.292Z,11.82
2023-10-09T05:58:04.732Z,11.84
2023-10-09T06:00:49.983Z,11.89
2023-10-09T06:03:24.966Z,11.97
2023-10-09T06:06:03.233Z,11.99
2023-10-09T06:08:42.557Z,12.04
2023-10-09T06:11:28.391Z,12.08
2023-10-09T06:14:10.720Z,12.18
2023-10-09T06:16:40.217Z,12.27
2023-10-09T06:19:27.754Z,12.37
2023-10-09T06:22:13.454Z,12.50
2023-10-09T06:24:43.602Z,12.66
2023-10-09T06:27:25.314Z,12.78
2023-10-09T06:29:52.375Z,12.93
2023-10-09T06:32:20.260Z,13.07
2023-10-09T06:35:15.453Z,13.21
2023-10-09T06:38:01.993Z,13.37
2023-10-09T06:40:37.607Z,13.52
2023-10-09T06:43:18.024Z,13.62
2023-10-09T06:45:55.502Z,13.75
2023-10-09T06:48:40.781Z,13.87
2023-10-09T06:51:28.028Z,14.00
2023-10-09T06:53:55.349Z,14.10
2023-10-09T06:56:45.123Z,14.17
2023-10-09T06:59:22.686Z,14.35
2023-10-09T07:02:12.429Z,14.53
2023-10-09T07:04:39.268Z,14.77
2023-10-09T07:07:36.789Z,14.99
2023-10-09T07:10:22.426Z,15.27
2023-10-09T07:12:55.981Z,15.55
2023-10-09T07:15:42.555Z,15.80
2023-10-09T07:18:24.393Z,16.07
2023-10-09T07:21:00.695Z,16.38
2023-10-09T07:23:34.323Z,16.67
2023-10-09T07:26:19.348Z,16.91
2023-10-09T07:28:49.448Z,17.20
2023-10-09T07:31:25.838Z,17.50
2023-10-09T07:33:59.651Z,17.82
2023-10-09T07:36:35.976Z,18.10
2023-10-09T07:39:14.986Z,18.40
2023-10-09T07:41:46.515Z,18.71
2023-10-09T07:44:20.562Z,18.99
2023-10-09T07:49:55.418Z,19.62
2023-10-09T07:52:23.043Z,19.91
2023-10-09T07:54:54.375Z,20.17
2023-10-09T07:57:27.185Z,20.39
2023-10-09T08:00:02.400Z,20.46
2023-10-09T08:02:40.093Z,20.59
2023-10-09T08:05:08.624Z,20.84
2023-10-09T08:08:04.270Z,21.12
2023-10-09T08:10:24.200Z,21.39
2023-10-09T08:12:51.040Z,21.64
2023-10-09T08:15:21.143Z,21.89
2023-10-09T08:18:11.849Z,22.16
2023-10-09T08:20:57.224Z,22.42
2023-10-09T08:23:49.342Z,22.61
2023-10-09T08:26:30.364Z,22.66
2023-10-09T08:29:16.222Z,22.72
2023-10-09T08:31:46.722Z,22.71
2023-10-09T08:36:55.992Z,22.76
2023-10-09T08:39:30.961Z,22.85
2023-10-09T08:42:06.234Z,23.03
2023-10-09T08:44:34.973Z,23.16
2023-10-09T08:47:01.830Z,23.21
2023-10-09T08:49:29.146Z,23.26
2023-10-09T08:51:56.768Z,23.26
2023-10-09T08:54:23.447Z,23.24
2023-10-09T08:56:52.925Z,23.22
2023-10-09T08:59:21.348Z,23.31
2023-10-09T09:01:50.976Z,23.37
2023-10-09T09:04:39.713Z,23.36
2023-10-09T09:07:08.448Z,23.37
2023-10-09T09:09:35.716Z,23.35
2023-10-09T09:12:02.528Z,23.35
2023-10-09T09:14:40.003Z,23.40
2023-10-09T09:17:12.226Z,23.52
2023-10-09T09:19:39.346Z,23.56
2023-10-09T09:22:13.842Z,23.51
2023-10-09T09:24:40.829Z,23.48
2023-10-09T09:27:19.891Z,23.54
2023-10-09T09:29:54.646Z,23.56
2023-10-09T09:32:31.604Z,23.61
2023-10-09T09:34:58.398Z,23.64
2023-10-09T09:37:29.763Z,23.64
2023-10-09T09:39:58.619Z,23.67
2023-10-09T09:42:28.632Z,23.75
2023-10-09T09:47:56.065Z,23.76
2023-10-09T09:50:27.797Z,23.72
2023-10-09T09:52:55.013Z,23.72
2023-10-09T09:55:30.681Z,23.66
2023-10-09T09:57:58.642Z,23.64
2023-10-09T10:03:03.246Z,23.65
2023-10-09T10:05:31.193Z,23.76
2023-10-09T10:07:59.012Z,23.79
2023-10-09T10:10:35.460Z,23.79
2023-10-09T10:13:02.692Z,23.81
2023-10-09T10:15:47.291Z,23.85
2023-10-09T10:18:20.706Z,23.94
2023-10-09T10:23:09.233Z,23.98
2023-10-09T10:25:42.439Z,24.00
2023-10-09T10:28:29.974Z,24.01
2023-10-09T10:30:59.108Z,24.10
2023-10-09T10:33:25.956Z,24.05
2023-10-09T10:35:52.793Z,24.03
2023-10-09T10:41:24.899Z,24.16
2023-10-09T10:43:55.953Z,24.13
2023-10-09T10:46:39.944Z,24.15
2023-10-09T10:49:21.950Z,24.14
2023-10-09T10:51:51.127Z,24.10
2023-10-09T10:54:34.569Z,24.10
2023-10-09T11:10:33.618Z,24.51
2023-10-09T11:13:09.766Z,24.50
2023-10-09T11:15:47.899Z,24.53
2023-10-09T11:18:21.711Z,24.53
2023-10-09T11:21:05.608Z,24.53
2023-10-09T11:23:35.647Z,24.57
2023-10-09T11:26:27.414Z,24.54
2023-10-09T11:29:14.976Z,24.51
2023-10-09T11:40:53.616Z,24.94
2023-10-09T11:56:56.546Z,25.61
2023-10-09T11:59:25.055Z,25.80
2023-10-09T12:01:54.369Z,25.79
2023-10-09T12:04:21.317Z,25.62
2023-10-09T12:06:50.634Z,25.44
2023-10-09T12:09:19.146Z,25.29
2023-10-09T12:12:03.090Z,25.15
2023-10-09T12:14:38.862Z,25.04
2023-10-09T12:17:08.836Z,24.93
2023-10-09T12:19:36.463Z,24.86
2023-10-09T12:22:06.831Z,24.81
2023-10-09T12:24:34.381Z,24.80
2023-10-09T12:27:01.859Z,24.70
2023-10-09T12:29:31.721Z,24.64
2023-10-09T12:45:48.880Z,24.30
2023-10-09T12:57:22.248Z,24.22
2023-10-09T13:06:11.281Z,24.02
2023-10-09T14:43:34.690Z,21.53
2023-10-09T14:46:01.736Z,21.66
2023-10-09T14:48:38.100Z,21.75
2023-10-09T14:56:35.363Z,21.96
2023-10-09T14:59:09.049Z,22.00
2023-10-09T15:01:36.107Z,22.05
2023-10-09T15:04:03.223Z,22.12
2023-10-09T15:06:31.602Z,22.21
2023-10-09T15:11:42.211Z,22.37
2023-10-09T15:14:26.467Z,22.37
2023-10-09T15:22:26.501Z,22.40
2023-10-09T15:30:15.529Z,22.41
2023-10-09T15:32:47.848Z,22.40
2023-10-09T15:35:22.491Z,22.42
2023-10-09T15:37:49.602Z,22.45
2023-10-09T15:40:16.897Z,22.48
2023-10-09T15:42:44.454Z,22.48
2023-10-09T15:45:14.867Z,22.49
2023-10-09T15:47:41.769Z,22.49
2023-10-09T15:52:55.428Z,22.49
2023-10-09T15:55:27.068Z,22.48
2023-10-09T16:00:41.275Z,22.39
2023-10-09T16:03:12.064Z,22.34
